Etusivu
METAR-TAF:

METAR-TAF

Lentoasemat :

Fairbanks, Alaska, Yhdysvallat

Leveyspiiri: 64-48-14N, Pituuspiiri: 147-52-34W, korkeus merenpinnasta: 132 m

Tämänhetkinen sää

Tämä raportti tehtiin 56 minuuttia sitten, kello 07.53 UTC
tyyntä
Lämpötila 15°C
Kosteus 72%
Ilmanpaine 1011 hPa
Näkyvyys: 16.1 km
Hajanaisia pilviä 6000 ft:n korkeudessa
Hajanaisia pilviä 10000 ft:n korkeudessa

METAR: PAFA 140753Z 00000KT 10SM SCT060 SCT100 15/10 A2986 RMK AO2 SLP113 T01500100 $

Aika: 00:49 (08:49 UTC)

Sääennuste

Tämä raportti tehtiin 3 tuntia ja 10 minuuttia sitten, kello 05.39 UTC
Ennuste voimassa 14. päivästä klo 06 UTC - 15. päivään klo 12 UTC
Tuuli 4 kn eri suunnista
Näkyvyys: 10 km
Hajanaisia pilviä 5000 ft:n korkeudessa
Hajanaisia pilviä 10000 ft:n korkeudessa

TAF: PAFA 140539Z 1406/1512 VRB04KT P6SM SCT050 SCT100

Säähavainnot ja -ennusteet yli 4000 lentoasemalta (METAR- ja TAF-raportit).

Käytössä olevat sääasemat on merkitty karttaan keltaisilla ja punaisilla pisteillä.

Aseta hiiri pisteen päälle nähdäksesi sääaseman nimen.

Klikkaa sitten nähdäksesi säähavainnot ja -ennusteet.

Kartan vaihtaminen: klikkaa mustalla rastilla varustettuja vihreitä pisteitä, niin voit zoomata sisään; viivalla varustettua vihreää pistettä, niin voit zoomata ulos tai vihreitä nuolia, niin pääset viereisille kartoille.


METAR-TAF: